A80 TRACON Summary / KATL TAF
ATL TRACON Summary:
High pressure will continue across ZTL with clear skies across the TRACON. FEW/SCT050-080 clouds are possible through the period, but not likely to be more dense than that. Surface winds will be light and variable, but will slightly favor west to northwest at up to 5kts. 30-60kt compressional winds are expected as aircraft transition from downwind to final in west operations. Flight Hazards in the TRACON airspace: LGT ocnl MOD turbulence at all altitudes.

Updated: 2/11/2016 12:37 PM
ATL Terminal Aerodrome Forecast:

FTUS80 KATL 112233 AAA
KATL 112232Z 1123/1224 30004KT P6SM FEW100
     FM120200 02004KT P6SM SCT035 BKN200
     FM120900 06005KT P6SM BKN030
     FM121400 07005KT P6SM BKN025
     FM121800 30008KT P6SM BKN025
ATL TRACON Area Remark:
NONE.
Convective Gate Forecast / Icing Gate Forecast / Vertical Wind Profile (click on image to enlarge)
Convective Gate Forecast
Icing Gate Forecast
table with gate forecasts (convective and CCFP) used April - November while icing gate forecasts are issued
AIRMETs & SIGMETS/ Southeast Radar loop / Satellite Image (click on image to enlarge)

Southeast Radar Loop

 



USA.gov is the U.S. government's official web portal to all federal, state and local government web resources and services.